Time,TemperatureF,DewpointF,PressureIn,WindDirection,WindDirectionDegrees,WindSpeedMPH,WindSpeedGustMPH,Humidity,HourlyPrecipIn,Conditions,Clouds,dailyrainin,SoftwareType,DateUTC
2013-10-02 00:01:00,58.2,52.1,30.31,North,0,0.0,0.0,80,0.00,,,0.00,WUHU216HW,2013-10-02 04:01:00,
2013-10-02 00:06:00,58.1,51.9,30.31,North,0,0.0,0.0,80,0.00,,,0.00,WUHU216HW,2013-10-02 04:06:00,
2013-10-02 00:11:00,57.9,51.8,30.31,North,0,0.0,0.0,80,0.00,,,0.00,WUHU216HW,2013-10-02 04:11:00,
2013-10-02 00:16:00,57.9,52.1,30.31,North,0,0.0,0.0,81,0.00,,,0.00,WUHU216HW,2013-10-02 04:16:00,
2013-10-02 00:21:00,57.7,51.9,30.31,North,0,0.0,0.0,81,0.00,,,0.00,WUHU216HW,2013-10-02 04:21:00,
2013-10-02 00:26:00,57.7,51.9,30.31,North,0,0.0,0.0,81,0.00,,,0.00,WUHU216HW,2013-10-02 04:26:00,
2013-10-02 00:31:00,57.3,51.7,30.31,North,0,0.0,0.0,81,0.00,,,0.00,WUHU216HW,2013-10-02 04:31:00,
2013-10-02 00:36:00,57.3,51.5,30.31,North,0,0.0,0.0,81,0.00,,,0.00,WUHU216HW,2013-10-02 04:36:00,
2013-10-02 00:41:00,57.3,51.5,30.31,North,0,0.0,0.0,81,0.00,,,0.00,WUHU216HW,2013-10-02 04:41:00,
2013-10-02 00:46:00,57.2,51.4,30.31,North,0,0.0,0.0,81,0.00,,,0.00,WUHU216HW,2013-10-02 04:46:00,
2013-10-02 00:51:00,57.0,51.2,30.31,North,0,0.0,0.0,81,0.00,,,0.00,WUHU216HW,2013-10-02 04:51:00,
2013-10-02 00:56:00,57.0,51.5,30.31,North,0,0.0,0.0,82,0.00,,,0.00,WUHU216HW,2013-10-02 04:56:00,
2013-10-02 01:01:00,57.0,51.5,30.31,North,0,0.0,0.0,82,0.00,,,0.00,WUHU216HW,2013-10-02 05:01:00,
2013-10-02 01:06:00,56.8,51.3,30.31,North,0,0.0,0.0,82,0.00,,,0.00,WUHU216HW,2013-10-02 05:06:00,
2013-10-02 01:11:00,56.8,51.3,30.31,North,0,0.0,0.0,82,0.00,,,0.00,WUHU216HW,2013-10-02 05:11:00,
2013-10-02 01:16:00,56.6,51.0,30.31,North,0,0.0,0.0,82,0.00,,,0.00,WUHU216HW,2013-10-02 05:16:00,
2013-10-02 01:21:00,56.4,51.0,30.31,North,0,0.0,0.0,82,0.00,,,0.00,WUHU216HW,2013-10-02 05:21:00,
2013-10-02 01:26:00,56.3,50.8,30.31,North,0,0.0,0.0,82,0.00,,,0.00,WUHU216HW,2013-10-02 05:26:00,
2013-10-02 01:31:00,56.3,50.8,30.31,North,0,0.0,0.0,82,0.00,,,0.00,WUHU216HW,2013-10-02 05:31:00,
2013-10-02 01:36:00,56.1,50.6,30.31,North,0,0.0,0.0,82,0.00,,,0.00,WUHU216HW,2013-10-02 05:36:00,
2013-10-02 01:41:00,56.1,50.6,30.31,North,0,0.0,0.0,82,0.00,,,0.00,WUHU216HW,2013-10-02 05:41:00,
2013-10-02 01:46:00,55.9,50.4,30.31,North,0,0.0,0.0,82,0.00,,,0.00,WUHU216HW,2013-10-02 05:46:00,
2013-10-02 01:51:00,55.9,50.4,30.31,North,0,0.0,0.0,82,0.00,,,0.00,WUHU216HW,2013-10-02 05:51:00,
2013-10-02 01:56:00,55.7,50.2,30.31,North,0,0.0,0.0,82,0.00,,,0.00,WUHU216HW,2013-10-02 05:56:00,
2013-10-02 02:01:00,55.7,50.4,30.31,North,0,0.0,0.0,83,0.00,,,0.00,WUHU216HW,2013-10-02 06:01:00,
2013-10-02 02:06:00,55.5,50.4,30.31,North,0,0.0,0.0,83,0.00,,,0.00,WUHU216HW,2013-10-02 06:06:00,
2013-10-02 02:11:00,55.2,50.0,30.31,North,0,0.0,0.0,83,0.00,,,0.00,WUHU216HW,2013-10-02 06:11:00,
2013-10-02 02:16:00,55.2,50.0,30.31,North,0,0.0,0.0,83,0.00,,,0.00,WUHU216HW,2013-10-02 06:16:00,
2013-10-02 02:21:00,55.2,50.0,30.31,North,0,0.0,0.0,83,0.00,,,0.00,WUHU216HW,2013-10-02 06:21:00,
2013-10-02 02:26:00,55.0,49.9,30.31,North,0,0.0,0.0,83,0.00,,,0.00,WUHU216HW,2013-10-02 06:26:00,
2013-10-02 02:31:00,55.0,49.9,30.31,North,0,0.0,0.0,83,0.00,,,0.00,WUHU216HW,2013-10-02 06:31:00,
2013-10-02 02:36:00,55.0,50.2,30.31,North,0,0.0,0.0,84,0.00,,,0.00,WUHU216HW,2013-10-02 06:36:00,
2013-10-02 02:41:00,54.8,50.0,30.31,North,0,0.0,0.0,84,0.00,,,0.00,WUHU216HW,2013-10-02 06:41:00,
2013-10-02 02:46:00,54.8,50.0,30.31,North,0,0.0,0.0,84,0.00,,,0.00,WUHU216HW,2013-10-02 06:46:00,
2013-10-02 02:51:00,54.8,50.0,30.31,North,0,0.0,0.0,84,0.00,,,0.00,WUHU216HW,2013-10-02 06:51:00,
2013-10-02 02:56:00,54.8,50.0,30.31,North,0,0.0,0.0,84,0.00,,,0.00,WUHU216HW,2013-10-02 06:56:00,
2013-10-02 03:01:00,54.8,50.0,30.30,North,0,0.0,0.0,84,0.00,,,0.00,WUHU216HW,2013-10-02 07:01:00,
2013-10-02 03:06:00,54.8,50.0,30.30,North,0,0.0,0.0,84,0.00,,,0.00,WUHU216HW,2013-10-02 07:06:00,
2013-10-02 03:11:00,54.8,50.0,30.30,North,0,0.0,0.0,84,0.00,,,0.00,WUHU216HW,2013-10-02 07:11:00,
2013-10-02 03:16:00,55.0,50.2,30.30,North,0,0.0,0.0,84,0.00,,,0.00,WUHU216HW,2013-10-02 07:16:00,
2013-10-02 03:21:00,55.0,50.2,30.30,North,0,0.0,0.0,84,0.00,,,0.00,WUHU216HW,2013-10-02 07:21:00,
2013-10-02 03:26:00,55.0,50.2,30.30,North,0,0.0,0.0,84,0.00,,,0.00,WUHU216HW,2013-10-02 07:26:00,
2013-10-02 03:31:00,55.0,50.2,30.30,North,0,0.0,0.0,84,0.00,,,0.00,WUHU216HW,2013-10-02 07:31:00,
2013-10-02 03:36:00,55.0,50.2,30.30,North,0,0.0,0.0,84,0.00,,,0.00,WUHU216HW,2013-10-02 07:36:00,
2013-10-02 03:41:00,55.0,50.2,30.30,North,0,0.0,0.0,84,0.00,,,0.00,WUHU216HW,2013-10-02 07:41:00,
2013-10-02 03:46:00,55.0,50.2,30.29,North,0,0.0,0.0,84,0.00,,,0.00,WUHU216HW,2013-10-02 07:46:00,
2013-10-02 03:51:00,55.0,50.2,30.30,North,0,0.0,0.0,84,0.00,,,0.00,WUHU216HW,2013-10-02 07:51:00,
2013-10-02 03:56:00,55.0,50.5,30.30,North,0,0.0,0.0,85,0.00,,,0.00,WUHU216HW,2013-10-02 07:56:00,
2013-10-02 04:01:00,55.0,50.5,30.30,North,0,0.0,0.0,85,0.00,,,0.00,WUHU216HW,2013-10-02 08:01:00,
2013-10-02 04:06:00,55.0,50.5,30.30,North,0,0.0,0.0,85,0.00,,,0.00,WUHU216HW,2013-10-02 08:06:00,
2013-10-02 04:11:00,55.2,50.7,30.30,North,0,0.0,0.0,85,0.00,,,0.00,WUHU216HW,2013-10-02 08:11:00,
2013-10-02 04:16:00,55.2,50.7,30.30,North,0,0.0,0.0,85,0.00,,,0.00,WUHU216HW,2013-10-02 08:16:00,
2013-10-02 04:21:00,55.0,50.5,30.30,North,0,0.0,0.0,85,0.00,,,0.00,WUHU216HW,2013-10-02 08:21:00,
2013-10-02 04:26:00,55.0,50.8,30.30,North,0,0.0,0.0,86,0.00,,,0.00,WUHU216HW,2013-10-02 08:26:00,
2013-10-02 04:31:00,55.0,50.8,30.30,North,0,0.0,0.0,86,0.00,,,0.00,WUHU216HW,2013-10-02 08:31:00,
2013-10-02 04:36:00,55.0,50.8,30.30,North,0,0.0,0.0,86,0.00,,,0.00,WUHU216HW,2013-10-02 08:36:00,
2013-10-02 04:41:00,55.0,50.8,30.30,North,0,0.0,0.0,86,0.00,,,0.00,WUHU216HW,2013-10-02 08:41:00,
2013-10-02 04:46:00,55.2,51.0,30.30,North,0,0.0,0.0,86,0.00,,,0.00,WUHU216HW,2013-10-02 08:46:00,
2013-10-02 04:51:00,55.2,51.0,30.30,North,0,0.0,0.0,86,0.00,,,0.00,WUHU216HW,2013-10-02 08:51:00,
2013-10-02 04:56:00,55.2,51.0,30.30,North,0,0.0,0.0,86,0.00,,,0.00,WUHU216HW,2013-10-02 08:56:00,
2013-10-02 05:01:00,55.2,51.0,30.30,North,0,0.0,0.0,86,0.00,,,0.00,WUHU216HW,2013-10-02 09:01:00,
2013-10-02 05:06:00,55.2,51.0,30.31,North,0,0.0,0.0,86,0.00,,,0.00,WUHU216HW,2013-10-02 09:06:00,
2013-10-02 05:11:00,55.2,51.0,30.31,North,0,0.0,0.0,86,0.00,,,0.00,WUHU216HW,2013-10-02 09:11:00,
2013-10-02 05:16:00,55.2,51.0,30.30,North,0,0.0,0.0,86,0.00,,,0.00,WUHU216HW,2013-10-02 09:16:00,
2013-10-02 05:21:00,55.2,51.0,30.30,North,0,0.0,0.0,86,0.00,,,0.00,WUHU216HW,2013-10-02 09:21:00,
2013-10-02 05:26:00,55.2,51.0,30.30,North,0,0.0,0.0,86,0.00,,,0.00,WUHU216HW,2013-10-02 09:26:00,
2013-10-02 05:31:00,55.2,51.0,30.31,North,0,0.0,0.0,86,0.00,,,0.00,WUHU216HW,2013-10-02 09:31:00,
2013-10-02 05:36:00,55.2,51.0,30.31,North,0,0.0,0.0,86,0.00,,,0.00,WUHU216HW,2013-10-02 09:36:00,
2013-10-02 05:41:00,55.4,51.2,30.31,North,0,0.0,0.0,86,0.00,,,0.00,WUHU216HW,2013-10-02 09:41:00,
2013-10-02 05:46:00,55.4,51.2,30.30,North,0,0.0,0.0,86,0.00,,,0.00,WUHU216HW,2013-10-02 09:46:00,
2013-10-02 05:51:00,55.4,51.2,30.31,North,0,0.0,0.0,86,0.00,,,0.00,WUHU216HW,2013-10-02 09:51:00,
2013-10-02 05:56:00,55.5,51.7,30.31,North,0,0.0,0.0,87,0.00,,,0.00,WUHU216HW,2013-10-02 09:56:00,
2013-10-02 06:01:00,55.5,51.7,30.31,North,0,0.0,0.0,87,0.00,,,0.00,WUHU216HW,2013-10-02 10:01:00,
2013-10-02 06:06:00,55.4,51.5,30.31,North,0,0.0,0.0,87,0.00,,,0.00,WUHU216HW,2013-10-02 10:06:00,
2013-10-02 06:11:00,55.5,51.7,30.31,North,0,0.0,0.0,87,0.00,,,0.00,WUHU216HW,2013-10-02 10:11:00,
2013-10-02 06:16:00,55.5,51.7,30.31,North,0,0.0,0.0,87,0.00,,,0.00,WUHU216HW,2013-10-02 10:16:00,
2013-10-02 06:21:00,55.5,51.7,30.31,North,0,0.0,0.0,87,0.00,,,0.00,WUHU216HW,2013-10-02 10:21:00,
2013-10-02 06:26:00,55.5,51.7,30.31,North,0,0.0,0.0,87,0.00,,,0.00,WUHU216HW,2013-10-02 10:26:00,
2013-10-02 06:31:00,55.5,51.7,30.32,North,0,0.0,0.0,87,0.00,,,0.00,WUHU216HW,2013-10-02 10:31:00,
2013-10-02 06:36:00,55.5,51.7,30.32,North,0,0.0,0.0,87,0.00,,,0.00,WUHU216HW,2013-10-02 10:36:00,
2013-10-02 06:41:00,55.5,51.7,30.32,North,0,0.0,0.0,87,0.00,,,0.00,WUHU216HW,2013-10-02 10:41:00,
2013-10-02 06:46:00,55.5,51.7,30.32,North,0,0.0,0.0,87,0.00,,,0.00,WUHU216HW,2013-10-02 10:46:00,
2013-10-02 06:51:00,55.5,51.7,30.32,North,0,0.0,0.0,87,0.00,,,0.00,WUHU216HW,2013-10-02 10:51:00,
2013-10-02 06:56:00,55.5,51.7,30.32,North,0,0.0,0.0,87,0.00,,,0.00,WUHU216HW,2013-10-02 10:56:00,
2013-10-02 07:01:00,55.5,51.7,30.32,North,0,0.0,0.0,87,0.00,,,0.00,WUHU216HW,2013-10-02 11:01:00,
2013-10-02 07:06:00,55.5,51.7,30.33,North,0,0.0,0.0,87,0.00,,,0.00,WUHU216HW,2013-10-02 11:06:00,
2013-10-02 07:11:00,55.5,51.7,30.33,North,0,0.0,0.0,87,0.00,,,0.00,WUHU216HW,2013-10-02 11:11:00,
2013-10-02 07:16:00,55.2,51.3,30.33,North,0,0.0,0.0,87,0.00,,,0.00,WUHU216HW,2013-10-02 11:16:00,
2013-10-02 07:21:00,55.2,51.3,30.33,North,0,0.0,0.0,87,0.00,,,0.00,WUHU216HW,2013-10-02 11:21:00,
2013-10-02 07:26:00,55.2,51.3,30.33,North,0,0.0,0.0,87,0.00,,,0.00,WUHU216HW,2013-10-02 11:26:00,
2013-10-02 07:31:00,55.0,51.1,30.33,North,0,0.0,0.0,87,0.00,,,0.00,WUHU216HW,2013-10-02 11:31:00,
2013-10-02 07:36:00,55.0,51.1,30.33,North,0,0.0,0.0,87,0.00,,,0.00,WUHU216HW,2013-10-02 11:36:00,
2013-10-02 07:41:00,55.0,51.1,30.34,North,0,0.0,0.0,87,0.00,,,0.00,WUHU216HW,2013-10-02 11:41:00,
2013-10-02 07:46:00,55.0,51.1,30.34,North,0,0.0,0.0,87,0.00,,,0.00,WUHU216HW,2013-10-02 11:46:00,
2013-10-02 07:51:00,55.0,51.5,30.34,North,0,0.0,0.0,88,0.00,,,0.00,WUHU216HW,2013-10-02 11:51:00,
2013-10-02 07:56:00,55.0,51.5,30.34,North,0,0.0,0.0,88,0.00,,,0.00,WUHU216HW,2013-10-02 11:56:00,
2013-10-02 08:01:00,55.2,51.6,30.34,North,0,0.0,0.0,88,0.00,,,0.00,WUHU216HW,2013-10-02 12:01:00,
2013-10-02 08:07:00,55.2,51.6,30.34,North,0,0.0,0.0,88,0.00,,,0.00,WUHU216HW,2013-10-02 12:07:00,
2013-10-02 08:12:00,55.2,51.6,30.34,North,0,0.0,0.0,88,0.00,,,0.00,WUHU216HW,2013-10-02 12:12:00,
2013-10-02 08:17:00,55.2,51.6,30.34,North,0,0.0,0.0,88,0.00,,,0.00,WUHU216HW,2013-10-02 12:17:00,
2013-10-02 08:22:00,55.2,51.6,30.34,North,0,0.0,0.0,88,0.00,,,0.00,WUHU216HW,2013-10-02 12:22:00,
2013-10-02 08:27:00,55.2,51.6,30.35,North,0,0.0,0.0,88,0.00,,,0.00,WUHU216HW,2013-10-02 12:27:00,
2013-10-02 08:32:00,55.2,51.6,30.35,North,0,0.0,0.0,88,0.00,,,0.00,WUHU216HW,2013-10-02 12:32:00,
2013-10-02 08:37:00,55.2,51.6,30.35,North,0,0.0,0.0,88,0.00,,,0.00,WUHU216HW,2013-10-02 12:37:00,
2013-10-02 08:42:00,55.4,51.8,30.35,North,0,0.0,0.0,88,0.00,,,0.00,WUHU216HW,2013-10-02 12:42:00,
2013-10-02 08:47:00,55.4,51.8,30.35,North,0,0.0,0.0,88,0.00,,,0.00,WUHU216HW,2013-10-02 12:47:00,
2013-10-02 08:52:00,55.5,52.0,30.35,North,0,0.0,0.0,88,0.00,,,0.00,WUHU216HW,2013-10-02 12:52:00,
2013-10-02 08:57:00,55.7,52.2,30.35,North,0,0.0,0.0,88,0.00,,,0.00,WUHU216HW,2013-10-02 12:57:00,
2013-10-02 09:02:00,55.9,52.4,30.35,North,0,0.0,0.0,88,0.00,,,0.00,WUHU216HW,2013-10-02 13:02:00,
2013-10-02 09:07:00,55.9,52.4,30.35,North,0,0.0,0.0,88,0.00,,,0.00,WUHU216HW,2013-10-02 13:07:00,
2013-10-02 09:12:00,55.9,52.4,30.36,North,0,0.0,0.0,88,0.00,,,0.00,WUHU216HW,2013-10-02 13:12:00,
2013-10-02 09:17:00,55.9,52.4,30.36,North,0,0.0,0.0,88,0.00,,,0.00,WUHU216HW,2013-10-02 13:17:00,
2013-10-02 09:22:00,56.1,52.5,30.36,North,0,0.0,0.0,88,0.00,,,0.00,WUHU216HW,2013-10-02 13:22:00,
2013-10-02 09:27:00,56.3,52.7,30.36,North,0,0.0,0.0,88,0.00,,,0.00,WUHU216HW,2013-10-02 13:27:00,
2013-10-02 09:32:00,56.4,52.9,30.36,North,0,0.0,0.0,88,0.00,,,0.00,WUHU216HW,2013-10-02 13:32:00,
2013-10-02 09:37:00,56.4,52.9,30.36,North,0,0.0,0.0,88,0.00,,,0.00,WUHU216HW,2013-10-02 13:37:00,
2013-10-02 09:42:00,56.4,52.9,30.37,North,0,0.0,0.0,88,0.00,,,0.00,WUHU216HW,2013-10-02 13:42:00,
2013-10-02 09:47:00,56.8,53.3,30.37,North,0,0.0,0.0,88,0.00,,,0.00,WUHU216HW,2013-10-02 13:47:00,
2013-10-02 09:52:00,56.8,53.3,30.36,North,0,0.0,0.0,88,0.00,,,0.00,WUHU216HW,2013-10-02 13:52:00,
2013-10-02 09:57:00,56.8,53.3,30.36,North,0,0.0,0.0,88,0.00,,,0.00,WUHU216HW,2013-10-02 13:57:00,
2013-10-02 10:02:00,56.8,53.3,30.36,North,0,0.0,0.0,88,0.00,,,0.00,WUHU216HW,2013-10-02 14:02:00,
2013-10-02 10:07:00,57.0,53.9,30.36,North,0,0.0,0.0,89,0.00,,,0.00,WUHU216HW,2013-10-02 14:07:00,
2013-10-02 10:12:00,57.3,54.1,30.36,North,0,0.0,0.0,89,0.00,,,0.00,WUHU216HW,2013-10-02 14:12:00,
2013-10-02 10:17:00,57.3,54.1,30.36,North,0,0.0,0.0,89,0.00,,,0.00,WUHU216HW,2013-10-02 14:17:00,
2013-10-02 10:22:00,57.7,54.5,30.36,North,0,0.0,0.0,89,0.00,,,0.00,WUHU216HW,2013-10-02 14:22:00,
2013-10-02 10:27:00,57.9,54.7,30.37,North,0,0.0,0.0,89,0.00,,,0.00,WUHU216HW,2013-10-02 14:27:00,
2013-10-02 10:32:00,58.2,55.0,30.37,North,0,0.0,0.0,89,0.00,,,0.00,WUHU216HW,2013-10-02 14:32:00,
2013-10-02 10:37:00,58.6,55.4,30.37,North,0,0.0,0.0,89,0.00,,,0.00,WUHU216HW,2013-10-02 14:37:00,
2013-10-02 10:42:00,58.8,55.6,30.37,North,0,0.0,0.0,89,0.00,,,0.00,WUHU216HW,2013-10-02 14:42:00,
2013-10-02 10:47:00,59.1,55.9,30.37,North,0,0.0,0.0,89,0.00,,,0.00,WUHU216HW,2013-10-02 14:47:00,
2013-10-02 10:52:00,59.3,56.1,30.36,North,0,0.0,0.0,89,0.00,,,0.00,WUHU216HW,2013-10-02 14:52:00,
2013-10-02 10:57:00,59.7,56.5,30.36,North,0,0.0,0.0,89,0.00,,,0.00,WUHU216HW,2013-10-02 14:57:00,
2013-10-02 11:02:00,60.0,56.8,30.36,North,0,0.0,0.0,89,0.00,,,0.00,WUHU216HW,2013-10-02 15:02:00,
2013-10-02 11:07:00,60.6,57.4,30.35,North,0,0.0,0.0,89,0.00,,,0.00,WUHU216HW,2013-10-02 15:07:00,
2013-10-02 11:12:00,61.7,58.8,30.35,North,0,0.0,0.0,90,0.00,,,0.00,WUHU216HW,2013-10-02 15:12:00,
2013-10-02 11:17:00,62.4,59.5,30.36,North,0,0.0,0.0,90,0.00,,,0.00,WUHU216HW,2013-10-02 15:17:00,
2013-10-02 11:22:00,63.1,59.9,30.35,North,0,0.0,0.0,89,0.00,,,0.00,WUHU216HW,2013-10-02 15:22:00,
2013-10-02 11:27:00,63.6,60.4,30.35,NNW,338,0.0,0.0,89,0.00,,,0.00,WUHU216HW,2013-10-02 15:27:00,
2013-10-02 11:32:00,64.5,60.9,30.35,NNW,338,0.0,0.0,88,0.00,,,0.00,WUHU216HW,2013-10-02 15:32:00,
2013-10-02 11:37:00,65.3,61.3,30.35,NNW,338,0.0,0.0,87,0.00,,,0.00,WUHU216HW,2013-10-02 15:37:00,
2013-10-02 11:42:00,66.0,61.9,30.34,NNW,338,0.0,0.0,87,0.00,,,0.00,WUHU216HW,2013-10-02 15:42:00,
2013-10-02 11:47:00,66.7,62.3,30.34,NNW,338,0.0,0.0,86,0.00,,,0.00,WUHU216HW,2013-10-02 15:47:00,
2013-10-02 11:52:00,67.2,62.9,30.34,NNW,338,0.0,0.0,86,0.00,,,0.00,WUHU216HW,2013-10-02 15:52:00,
2013-10-02 11:57:00,68.5,63.5,30.34,NNW,338,0.0,0.0,84,0.00,,,0.00,WUHU216HW,2013-10-02 15:57:00,
2013-10-02 12:02:00,69.0,63.3,30.34,NW,315,0.0,3.8,82,0.00,,,0.00,WUHU216HW,2013-10-02 16:02:00,
2013-10-02 12:07:00,69.6,63.4,30.33,NW,315,0.0,3.8,81,0.00,,,0.00,WUHU216HW,2013-10-02 16:07:00,
2013-10-02 12:12:00,70.3,63.8,30.33,NW,315,0.0,0.0,80,0.00,,,0.00,WUHU216HW,2013-10-02 16:12:00,
2013-10-02 12:17:00,70.8,64.0,30.34,NW,315,0.0,0.0,79,0.00,,,0.00,WUHU216HW,2013-10-02 16:17:00,
2013-10-02 12:22:00,71.4,64.5,30.34,NW,315,0.0,0.0,79,0.00,,,0.00,WUHU216HW,2013-10-02 16:22:00,
2013-10-02 12:27:00,72.3,64.3,30.34,NW,315,0.0,0.0,76,0.00,,,0.00,WUHU216HW,2013-10-02 16:27:00,
2013-10-02 12:32:00,72.6,64.3,30.33,NW,315,0.0,0.0,75,0.00,,,0.00,WUHU216HW,2013-10-02 16:32:00,
2013-10-02 12:37:00,73.0,64.2,30.33,NW,315,0.0,0.0,74,0.00,,,0.00,WUHU216HW,2013-10-02 16:37:00,
2013-10-02 12:42:00,73.5,64.8,30.33,NW,315,0.0,0.0,74,0.00,,,0.00,WUHU216HW,2013-10-02 16:42:00,
2013-10-02 12:47:00,73.7,64.2,30.33,NNW,338,0.0,0.0,72,0.00,,,0.00,WUHU216HW,2013-10-02 16:47:00,
2013-10-02 12:52:00,74.1,63.7,30.33,SW,225,0.0,0.0,70,0.00,,,0.00,WUHU216HW,2013-10-02 16:52:00,
2013-10-02 12:57:00,74.8,64.4,30.32,SW,225,0.0,0.0,70,0.00,,,0.00,WUHU216HW,2013-10-02 16:57:00,
2013-10-02 13:02:00,74.8,63.9,30.32,WNW,293,0.0,0.0,69,0.00,,,0.00,WUHU216HW,2013-10-02 17:02:00,
2013-10-02 13:07:00,74.4,63.2,30.32,North,0,0.0,0.0,68,0.00,,,0.00,WUHU216HW,2013-10-02 17:07:00,
2013-10-02 13:12:00,74.1,63.7,30.32,WSW,248,0.0,0.0,70,0.00,,,0.00,WUHU216HW,2013-10-02 17:12:00,
2013-10-02 13:17:00,74.4,64.4,30.32,WSW,248,0.0,0.0,71,0.00,,,0.00,WUHU216HW,2013-10-02 17:17:00,
2013-10-02 13:22:00,75.3,64.4,30.32,WSW,248,0.0,0.0,69,0.00,,,0.00,WUHU216HW,2013-10-02 17:22:00,
2013-10-02 13:27:00,75.7,64.4,30.31,WSW,248,0.0,0.0,68,0.00,,,0.00,WUHU216HW,2013-10-02 17:27:00,
2013-10-02 13:32:00,76.2,64.9,30.31,WSW,248,0.0,0.0,68,0.00,,,0.00,WUHU216HW,2013-10-02 17:32:00,
2013-10-02 13:37:00,77.0,64.7,30.31,North,0,0.0,0.0,66,0.00,,,0.00,WUHU216HW,2013-10-02 17:37:00,
2013-10-02 13:42:00,77.0,63.8,30.30,WSW,248,0.0,0.0,64,0.00,,,0.00,WUHU216HW,2013-10-02 17:42:00,
2013-10-02 13:47:00,77.1,64.0,30.30,WSW,248,0.0,0.0,64,0.00,,,0.00,WUHU216HW,2013-10-02 17:47:00,
2013-10-02 13:52:00,77.5,63.9,30.30,WSW,248,0.0,0.0,63,0.00,,,0.00,WUHU216HW,2013-10-02 17:52:00,
2013-10-02 13:57:00,77.9,63.3,30.29,WSW,248,0.0,0.0,61,0.00,,,0.00,WUHU216HW,2013-10-02 17:57:00,
2013-10-02 14:02:00,78.0,63.5,30.29,WSW,248,0.0,0.6,61,0.00,,,0.00,WUHU216HW,2013-10-02 18:02:00,
2013-10-02 14:07:00,77.9,63.3,30.29,WSW,248,0.0,0.6,61,0.00,,,0.00,WUHU216HW,2013-10-02 18:07:00,
2013-10-02 14:12:00,77.7,62.7,30.29,WSW,248,0.0,0.0,60,0.00,,,0.00,WUHU216HW,2013-10-02 18:12:00,
2013-10-02 14:17:00,77.7,63.2,30.29,WSW,248,0.0,0.0,61,0.00,,,0.00,WUHU216HW,2013-10-02 18:17:00,
2013-10-02 14:22:00,77.7,62.7,30.29,WSW,248,0.0,0.0,60,0.00,,,0.00,WUHU216HW,2013-10-02 18:22:00,
2013-10-02 14:27:00,77.9,63.3,30.29,WSW,248,0.0,0.0,61,0.00,,,0.00,WUHU216HW,2013-10-02 18:27:00,
2013-10-02 14:32:00,78.0,63.1,30.29,WSW,248,0.0,0.0,60,0.00,,,0.00,WUHU216HW,2013-10-02 18:32:00,
2013-10-02 14:37:00,78.4,63.5,30.28,WSW,248,0.0,0.0,60,0.00,,,0.00,WUHU216HW,2013-10-02 18:37:00,
2013-10-02 14:42:00,78.4,63.5,30.28,NW,315,0.0,0.0,60,0.00,,,0.00,WUHU216HW,2013-10-02 18:42:00,
2013-10-02 14:47:00,78.6,63.6,30.28,NW,315,0.0,0.0,60,0.00,,,0.00,WUHU216HW,2013-10-02 18:47:00,
2013-10-02 14:52:00,78.6,64.1,30.28,WSW,248,0.0,0.0,61,0.00,,,0.00,WUHU216HW,2013-10-02 18:52:00,
2013-10-02 14:57:00,78.6,63.6,30.27,WNW,293,0.0,0.0,60,0.00,,,0.00,WUHU216HW,2013-10-02 18:57:00,
2013-10-02 15:02:00,78.6,63.6,30.28,West,270,0.0,0.0,60,0.00,,,0.00,WUHU216HW,2013-10-02 19:02:00,
2013-10-02 15:07:00,78.0,63.1,30.28,West,270,0.0,0.0,60,0.00,,,0.00,WUHU216HW,2013-10-02 19:07:00,
2013-10-02 15:12:00,77.9,62.9,30.28,West,270,0.0,0.0,60,0.00,,,0.00,WUHU216HW,2013-10-02 19:12:00,
2013-10-02 15:17:00,77.9,63.3,30.28,West,270,0.0,0.0,61,0.00,,,0.00,WUHU216HW,2013-10-02 19:17:00,
2013-10-02 15:22:00,77.7,63.2,30.28,West,270,0.0,0.0,61,0.00,,,0.00,WUHU216HW,2013-10-02 19:22:00,
2013-10-02 15:27:00,77.5,63.2,30.28,West,270,0.0,0.0,60,0.00,,,0.00,WUHU216HW,2013-10-02 19:27:00,
2013-10-02 15:32:00,77.0,62.0,30.27,West,270,0.0,0.0,60,0.00,,,0.00,WUHU216HW,2013-10-02 19:32:00,
2013-10-02 15:37:00,76.2,61.8,30.27,West,270,0.0,0.0,61,0.00,,,0.00,WUHU216HW,2013-10-02 19:37:00,
2013-10-02 15:42:00,75.9,61.9,30.27,West,270,0.0,0.0,62,0.00,,,0.00,WUHU216HW,2013-10-02 19:42:00,
2013-10-02 15:47:00,75.9,61.9,30.27,West,270,0.0,0.0,62,0.00,,,0.00,WUHU216HW,2013-10-02 19:47:00,
2013-10-02 15:52:00,75.7,61.3,30.26,West,270,0.0,0.0,61,0.00,,,0.00,WUHU216HW,2013-10-02 19:52:00,
2013-10-02 15:57:00,75.5,60.2,30.26,West,270,0.0,0.0,59,0.00,,,0.00,WUHU216HW,2013-10-02 19:57:00,
2013-10-02 16:02:00,75.3,60.6,30.26,West,270,0.0,0.0,60,0.00,,,0.00,WUHU216HW,2013-10-02 20:02:00,
2013-10-02 16:07:00,75.2,59.9,30.26,North,0,0.0,0.0,59,0.00,,,0.00,WUHU216HW,2013-10-02 20:07:00,
2013-10-02 16:12:00,75.3,59.5,30.26,NNE,23,0.0,0.0,58,0.00,,,0.00,WUHU216HW,2013-10-02 20:12:00,
2013-10-02 16:17:00,75.3,59.0,30.27,NNE,23,0.0,0.0,57,0.00,,,0.00,WUHU216HW,2013-10-02 20:17:00,
2013-10-02 16:22:00,75.5,59.2,30.26,NNE,23,0.0,0.0,57,0.00,,,0.00,WUHU216HW,2013-10-02 20:22:00,
2013-10-02 16:27:00,75.7,59.4,30.26,NNE,23,0.0,0.0,57,0.00,,,0.00,WUHU216HW,2013-10-02 20:27:00,
2013-10-02 16:32:00,75.7,59.4,30.26,NNE,23,0.0,0.0,57,0.00,,,0.00,WUHU216HW,2013-10-02 20:32:00,
2013-10-02 16:37:00,75.5,59.2,30.26,NNE,23,0.0,0.0,57,0.00,,,0.00,WUHU216HW,2013-10-02 20:37:00,
2013-10-02 16:42:00,75.5,59.7,30.26,NNE,23,0.0,0.0,58,0.00,,,0.00,WUHU216HW,2013-10-02 20:42:00,
2013-10-02 16:47:00,75.5,60.2,30.26,NNE,23,0.0,0.0,59,0.00,,,0.00,WUHU216HW,2013-10-02 20:47:00,
2013-10-02 16:52:00,75.5,60.7,30.26,NNE,23,0.0,0.0,60,0.00,,,0.00,WUHU216HW,2013-10-02 20:52:00,
2013-10-02 16:58:00,75.3,60.0,30.26,NNE,23,0.0,0.0,59,0.00,,,0.00,WUHU216HW,2013-10-02 20:58:00,
2013-10-02 17:03:00,75.3,60.6,30.26,NNE,23,0.0,0.0,60,0.00,,,0.00,WUHU216HW,2013-10-02 21:03:00,
2013-10-02 17:08:00,75.5,60.7,30.26,NNE,23,0.0,0.0,60,0.00,,,0.00,WUHU216HW,2013-10-02 21:08:00,
2013-10-02 17:13:00,75.3,60.0,30.26,NNE,23,0.0,0.0,59,0.00,,,0.00,WUHU216HW,2013-10-02 21:13:00,
2013-10-02 17:18:00,75.0,60.6,30.26,NNE,23,0.0,0.0,61,0.00,,,0.00,WUHU216HW,2013-10-02 21:18:00,
2013-10-02 17:23:00,74.8,60.5,30.26,NNW,338,0.0,0.0,61,0.00,,,0.00,WUHU216HW,2013-10-02 21:23:00,
2013-10-02 17:28:00,74.4,60.3,30.26,North,0,0.0,0.0,61,0.00,,,0.00,WUHU216HW,2013-10-02 21:28:00,
2013-10-02 17:33:00,74.1,60.2,30.26,North,0,0.0,0.0,62,0.00,,,0.00,WUHU216HW,2013-10-02 21:33:00,
2013-10-02 17:38:00,74.1,60.6,30.26,North,0,0.0,0.0,63,0.00,,,0.00,WUHU216HW,2013-10-02 21:38:00,
2013-10-02 17:43:00,74.1,61.1,30.26,North,0,0.0,0.0,64,0.00,,,0.00,WUHU216HW,2013-10-02 21:43:00,
2013-10-02 17:48:00,74.1,61.1,30.26,NNE,23,0.0,0.0,64,0.00,,,0.00,WUHU216HW,2013-10-02 21:48:00,
2013-10-02 17:53:00,74.1,61.1,30.27,NNE,23,0.0,0.0,64,0.00,,,0.00,WUHU216HW,2013-10-02 21:53:00,
2013-10-02 17:58:00,73.9,61.3,30.26,NNE,23,0.0,0.0,65,0.00,,,0.00,WUHU216HW,2013-10-02 21:58:00,
2013-10-02 18:03:00,73.7,61.2,30.26,NNE,23,0.0,0.0,65,0.00,,,0.00,WUHU216HW,2013-10-02 22:03:00,
2013-10-02 18:08:00,73.5,61.0,30.26,NNE,23,0.0,0.0,65,0.00,,,0.00,WUHU216HW,2013-10-02 22:08:00,
2013-10-02 18:13:00,73.5,61.5,30.27,NNE,23,0.0,0.0,66,0.00,,,0.00,WUHU216HW,2013-10-02 22:13:00,
2013-10-02 18:18:00,73.4,61.7,30.27,NNE,23,0.0,0.0,67,0.00,,,0.00,WUHU216HW,2013-10-02 22:18:00,
2013-10-02 18:23:00,73.2,61.6,30.26,NNE,23,0.0,0.0,67,0.00,,,0.00,WUHU216HW,2013-10-02 22:23:00,
2013-10-02 18:28:00,73.2,62.0,30.26,NNE,23,0.0,0.0,68,0.00,,,0.00,WUHU216HW,2013-10-02 22:28:00,
2013-10-02 18:33:00,73.2,62.0,30.26,NNE,23,0.0,0.0,68,0.00,,,0.00,WUHU216HW,2013-10-02 22:33:00,
2013-10-02 18:38:00,73.0,61.8,30.26,NNE,23,0.0,0.0,68,0.00,,,0.00,WUHU216HW,2013-10-02 22:38:00,
2013-10-02 18:43:00,72.5,61.5,30.27,NNE,23,0.0,0.0,68,0.00,,,0.00,WUHU216HW,2013-10-02 22:43:00,
2013-10-02 18:48:00,72.3,61.6,30.27,NNE,23,0.0,0.0,69,0.00,,,0.00,WUHU216HW,2013-10-02 22:48:00,
2013-10-02 18:53:00,72.1,61.4,30.27,NNE,23,0.0,0.0,69,0.00,,,0.00,WUHU216HW,2013-10-02 22:53:00,
2013-10-02 18:58:00,71.7,60.6,30.26,NNE,23,0.0,0.0,68,0.00,,,0.00,WUHU216HW,2013-10-02 22:58:00,
2013-10-02 19:03:00,71.2,60.5,30.27,NNE,23,0.0,0.0,69,0.00,,,0.00,WUHU216HW,2013-10-02 23:03:00,
2013-10-02 19:08:00,70.8,60.1,30.27,NNE,23,0.0,0.0,69,0.00,,,0.00,WUHU216HW,2013-10-02 23:08:00,
2013-10-02 19:13:00,70.3,59.6,30.27,NNE,23,0.0,0.0,69,0.00,,,0.00,WUHU216HW,2013-10-02 23:13:00,
2013-10-02 19:18:00,69.9,59.7,30.27,NNE,23,0.0,0.0,70,0.00,,,0.00,WUHU216HW,2013-10-02 23:18:00,
2013-10-02 19:23:00,69.6,59.3,30.27,NNE,23,0.0,0.0,70,0.00,,,0.00,WUHU216HW,2013-10-02 23:23:00,
2013-10-02 19:28:00,69.0,59.0,30.27,NNE,23,0.0,0.0,70,0.00,,,0.00,WUHU216HW,2013-10-02 23:28:00,
2013-10-02 19:33:00,68.7,58.9,30.27,NNE,23,0.0,0.0,71,0.00,,,0.00,WUHU216HW,2013-10-02 23:33:00,
2013-10-02 19:38:00,68.3,58.6,30.27,NNE,23,0.0,0.0,71,0.00,,,0.00,WUHU216HW,2013-10-02 23:38:00,
2013-10-02 19:43:00,68.0,58.6,30.28,NNE,23,0.0,0.0,72,0.00,,,0.00,WUHU216HW,2013-10-02 23:43:00,
2013-10-02 19:48:00,67.6,58.3,30.28,NNE,23,0.0,0.0,72,0.00,,,0.00,WUHU216HW,2013-10-02 23:48:00,
2013-10-02 19:53:00,67.2,57.9,30.28,NNE,23,0.0,0.0,72,0.00,,,0.00,WUHU216HW,2013-10-02 23:53:00,
2013-10-02 19:58:00,67.1,57.9,30.28,NNE,23,0.0,0.0,73,0.00,,,0.00,WUHU216HW,2013-10-02 23:58:00,
2013-10-02 20:03:00,66.7,57.7,30.28,NNE,23,0.0,0.0,73,0.00,,,0.00,WUHU216HW,2013-10-03 00:03:00,
2013-10-02 20:08:00,66.3,57.8,30.28,NNE,23,0.0,0.0,74,0.00,,,0.00,WUHU216HW,2013-10-03 00:08:00,
2013-10-02 20:13:00,66.0,57.4,30.28,NNE,23,0.0,0.0,74,0.00,,,0.00,WUHU216HW,2013-10-03 00:13:00,
2013-10-02 20:18:00,65.8,57.2,30.28,NNE,23,0.0,0.0,74,0.00,,,0.00,WUHU216HW,2013-10-03 00:18:00,
2013-10-02 20:23:00,65.6,57.1,30.28,NNE,23,0.0,0.0,74,0.00,,,0.00,WUHU216HW,2013-10-03 00:23:00,
2013-10-02 20:28:00,65.4,56.9,30.28,NNE,23,0.0,0.0,74,0.00,,,0.00,WUHU216HW,2013-10-03 00:28:00,
2013-10-02 20:33:00,65.1,56.9,30.28,NNE,23,0.0,0.0,75,0.00,,,0.00,WUHU216HW,2013-10-03 00:33:00,
2013-10-02 20:38:00,64.9,56.8,30.28,NNE,23,0.0,0.0,75,0.00,,,0.00,WUHU216HW,2013-10-03 00:38:00,
2013-10-02 20:43:00,64.7,56.8,30.29,NNE,23,0.0,0.0,76,0.00,,,0.00,WUHU216HW,2013-10-03 00:43:00,
2013-10-02 20:48:00,64.5,56.8,30.28,NNE,23,0.0,0.0,76,0.00,,,0.00,WUHU216HW,2013-10-03 00:48:00,
2013-10-02 20:53:00,64.2,56.4,30.29,NNE,23,0.0,0.0,76,0.00,,,0.00,WUHU216HW,2013-10-03 00:53:00,
2013-10-02 20:58:00,64.2,56.4,30.28,NNE,23,0.0,0.0,76,0.00,,,0.00,WUHU216HW,2013-10-03 00:58:00,
2013-10-02 21:03:00,64.0,56.3,30.29,NNE,23,0.0,0.0,76,0.00,,,0.00,WUHU216HW,2013-10-03 01:03:00,
2013-10-02 21:08:00,63.8,56.4,30.29,NNE,23,0.0,0.0,77,0.00,,,0.00,WUHU216HW,2013-10-03 01:08:00,
2013-10-02 21:13:00,63.6,56.3,30.28,NNE,23,0.0,0.0,77,0.00,,,0.00,WUHU216HW,2013-10-03 01:13:00,
2013-10-02 21:18:00,63.5,56.1,30.28,NNE,23,0.0,0.0,77,0.00,,,0.00,WUHU216HW,2013-10-03 01:18:00,
2013-10-02 21:23:00,63.3,55.9,30.28,NNE,23,0.0,0.0,77,0.00,,,0.00,WUHU216HW,2013-10-03 01:23:00,
2013-10-02 21:28:00,63.1,55.7,30.29,NNE,23,0.0,0.0,77,0.00,,,0.00,WUHU216HW,2013-10-03 01:28:00,
2013-10-02 21:33:00,62.9,55.9,30.29,NNE,23,0.0,0.0,78,0.00,,,0.00,WUHU216HW,2013-10-03 01:33:00,
2013-10-02 21:38:00,62.7,55.7,30.29,NNE,23,0.0,0.0,78,0.00,,,0.00,WUHU216HW,2013-10-03 01:38:00,
2013-10-02 21:43:00,62.6,55.4,30.29,NNE,23,0.0,0.0,78,0.00,,,0.00,WUHU216HW,2013-10-03 01:43:00,
2013-10-02 21:48:00,62.4,55.4,30.29,NNE,23,0.0,0.0,78,0.00,,,0.00,WUHU216HW,2013-10-03 01:48:00,
2013-10-02 21:53:00,62.4,55.4,30.29,NNE,23,0.0,0.0,78,0.00,,,0.00,WUHU216HW,2013-10-03 01:53:00,
2013-10-02 21:58:00,62.2,55.2,30.29,NNE,23,0.0,0.0,78,0.00,,,0.00,WUHU216HW,2013-10-03 01:58:00,
2013-10-02 22:03:00,61.8,55.2,30.29,NNE,23,0.0,0.0,79,0.00,,,0.00,WUHU216HW,2013-10-03 02:03:00,
2013-10-02 22:08:00,61.8,55.2,30.29,NNE,23,0.0,0.0,79,0.00,,,0.00,WUHU216HW,2013-10-03 02:08:00,
2013-10-02 22:13:00,61.7,55.1,30.29,NNE,23,0.0,0.0,79,0.00,,,0.00,WUHU216HW,2013-10-03 02:13:00,
2013-10-02 22:18:00,61.5,54.9,30.30,NNE,23,0.0,0.0,79,0.00,,,0.00,WUHU216HW,2013-10-03 02:18:00,
2013-10-02 22:23:00,61.5,54.9,30.30,NNE,23,0.0,0.0,79,0.00,,,0.00,WUHU216HW,2013-10-03 02:23:00,
2013-10-02 22:28:00,61.3,54.8,30.30,NNE,23,0.0,0.0,79,0.00,,,0.00,WUHU216HW,2013-10-03 02:28:00,
2013-10-02 22:33:00,61.1,55.0,30.30,NNE,23,0.0,0.0,80,0.00,,,0.00,WUHU216HW,2013-10-03 02:33:00,
2013-10-02 22:38:00,60.9,54.8,30.30,NNE,23,0.0,0.0,80,0.00,,,0.00,WUHU216HW,2013-10-03 02:38:00,
2013-10-02 22:43:00,60.9,54.8,30.31,NNE,23,0.0,0.0,80,0.00,,,0.00,WUHU216HW,2013-10-03 02:43:00,
2013-10-02 22:48:00,60.6,54.5,30.31,NNE,23,0.0,0.0,80,0.00,,,0.00,WUHU216HW,2013-10-03 02:48:00,
2013-10-02 22:53:00,60.6,54.5,30.30,NNE,23,0.0,0.0,80,0.00,,,0.00,WUHU216HW,2013-10-03 02:53:00,
2013-10-02 22:58:00,60.4,54.3,30.31,NNE,23,0.0,0.0,80,0.00,,,0.00,WUHU216HW,2013-10-03 02:58:00,
2013-10-02 23:03:00,60.4,54.3,30.31,NNE,23,0.0,0.0,80,0.00,,,0.00,WUHU216HW,2013-10-03 03:03:00,
2013-10-02 23:08:00,60.0,53.9,30.31,NNE,23,0.0,0.0,80,0.00,,,0.00,WUHU216HW,2013-10-03 03:08:00,
2013-10-02 23:13:00,60.0,53.9,30.31,NNE,23,0.0,0.0,80,0.00,,,0.00,WUHU216HW,2013-10-03 03:13:00,
2013-10-02 23:18:00,59.9,53.7,30.31,NNE,23,0.0,0.0,80,0.00,,,0.00,WUHU216HW,2013-10-03 03:18:00,
2013-10-02 23:23:00,59.7,53.6,30.32,NNE,23,0.0,0.0,80,0.00,,,0.00,WUHU216HW,2013-10-03 03:23:00,
2013-10-02 23:28:00,59.5,53.7,30.31,NNE,23,0.0,0.0,81,0.00,,,0.00,WUHU216HW,2013-10-03 03:28:00,
2013-10-02 23:33:00,59.5,53.7,30.31,NNE,23,0.0,0.0,81,0.00,,,0.00,WUHU216HW,2013-10-03 03:33:00,
2013-10-02 23:38:00,59.5,53.7,30.31,NNE,23,0.0,0.0,81,0.00,,,0.00,WUHU216HW,2013-10-03 03:38:00,
2013-10-02 23:43:00,59.1,53.3,30.31,NNE,23,0.0,0.0,81,0.00,,,0.00,WUHU216HW,2013-10-03 03:43:00,
2013-10-02 23:48:00,59.1,53.3,30.31,NNE,23,0.0,0.0,81,0.00,,,0.00,WUHU216HW,2013-10-03 03:48:00,
2013-10-02 23:53:00,58.8,53.0,30.32,NNE,23,0.0,0.0,81,0.00,,,0.00,WUHU216HW,2013-10-03 03:53:00,
2013-10-02 23:58:00,58.8,53.0,30.31,NNE,23,0.0,0.0,81,0.00,,,0.00,WUHU216HW,2013-10-03 03:58:00,